Portada
METAR-TAF:

METAR-TAF

Aeropuertos :

Aeropuerto Internacional Rarotonga

Rarotonga, Islas Cook

latitud: 21-12S, longitud: 159-49W, altitud: 7 m

Observación

El informe se hizo hace 1 hora y 53 minutos, a las 18:00 UTC
Viento 9 kt del noreste
Temperatura 24°C
Humedad 78%
Presión 1014 hPa
Visibilidad 10 km o más
Escasas nubes a una altura de 1800 ft
Nubes dispersas a una altura de 29000 ft

METAR: NCRG 211800Z 04009KT 9999 FEW018 SCT290 24/20 Q1014 RMK DEW ON GRASS

Hora: 09:53 (19:53 UTC)

Pronóstico

El informe se hizo hace 2 horas y 39 minutos, a las 17:14 UTC
Pronóstico válido del 21 a las 18 UTC al 22 a las 18 UTC
Viento 8 kt del noreste
Visibilidad 10 km o más
Nubes dispersas a una altura de 2000 ft
Evolucionando progresivamente
del 22 a las 02 UTC al 22 a las 04 UTC
Viento 10 kt del norte-noroeste

TAF: NCRG 211714Z 2118/2218 04008KT 9999 SCT020 BECMG 2202/2204 34010KT

Observaciones y pronósticos meteorológicos de más de 4000 aeropuertos (mensajes METAR y TAF).

Los puntos amarillos y rojos representan las estaciones disponibles.

Ponga el ratón en el punto deseado para ver el nombre de la estación.

Haga clic para ver las observaciones y los pronósticos meteorológicos.

Para cambiar el mapa : haga clic en los botones verdes con una cruz de color negro para hacer un zoom, en el botón verde con un guión para alejar o en las flechas verdes para mapas adyacentes.


METAR-TAF: